createdAt,value
2023-02-13T00:02:05.580Z,7.32
2023-02-13T00:04:32.495Z,6.38
2023-02-13T00:06:59.326Z,6.40
2023-02-13T00:09:26.218Z,7.93
2023-02-13T00:11:53.101Z,7.13
2023-02-13T00:14:19.974Z,6.90
2023-02-13T00:16:46.888Z,7.00
2023-02-13T00:19:13.821Z,7.45
2023-02-13T00:21:40.725Z,7.50
2023-02-13T00:24:07.730Z,7.10
2023-02-13T00:26:34.584Z,7.60
2023-02-13T00:29:01.526Z,8.52
2023-02-13T00:31:28.480Z,7.32
2023-02-13T00:33:55.360Z,6.82
2023-02-13T00:36:23.354Z,6.93
2023-02-13T00:38:51.402Z,8.00
2023-02-13T00:41:20.244Z,7.07
2023-02-13T00:43:47.855Z,7.43
2023-02-13T00:46:15.674Z,7.38
2023-02-13T00:48:42.881Z,6.47
2023-02-13T00:51:09.975Z,7.20
2023-02-13T00:53:37.804Z,7.93
2023-02-13T00:56:06.297Z,6.70
2023-02-13T00:58:33.965Z,6.70
2023-02-13T01:01:01.058Z,6.90
2023-02-13T01:03:28.018Z,6.65
2023-02-13T01:05:57.094Z,7.60
2023-02-13T01:08:28.350Z,6.93
2023-02-13T01:10:56.326Z,6.05
2023-02-13T01:13:23.524Z,6.55
2023-02-13T01:15:51.528Z,6.40
2023-02-13T01:18:20.393Z,7.10
2023-02-13T01:21:06.103Z,6.65
2023-02-13T01:23:34.920Z,6.05
2023-02-13T01:26:04.786Z,7.75
2023-02-13T01:28:32.446Z,7.00
2023-02-13T01:31:00.356Z,6.70
2023-02-13T01:33:29.547Z,6.28
2023-02-13T01:35:56.550Z,6.32
2023-02-13T01:38:23.549Z,6.22
2023-02-13T01:40:53.200Z,6.22
2023-02-13T01:43:24.321Z,5.93
2023-02-13T01:45:56.394Z,6.55
2023-02-13T01:48:27.374Z,6.22
2023-02-13T01:51:02.980Z,6.25
2023-02-13T01:53:56.649Z,6.03
2023-02-13T01:56:41.095Z,5.88
2023-02-13T01:59:33.741Z,6.30
2023-02-13T02:02:01.536Z,5.90
2023-02-13T02:04:36.233Z,6.70
2023-02-13T02:07:41.113Z,6.95
2023-02-13T02:10:16.860Z,6.43
2023-02-13T02:12:51.173Z,6.55
2023-02-13T02:15:20.282Z,7.85
2023-02-13T02:17:47.564Z,7.45
2023-02-13T02:20:23.345Z,7.30
2023-02-13T02:23:17.288Z,9.13
2023-02-13T02:26:06.561Z,6.43
2023-02-13T02:28:47.090Z,6.38
2023-02-13T02:31:46.891Z,8.25
2023-02-13T02:34:38.988Z,6.20
2023-02-13T02:37:09.064Z,6.25
2023-02-13T02:39:57.140Z,7.90
2023-02-13T02:42:24.073Z,6.47
2023-02-13T02:45:05.665Z,6.80
2023-02-13T02:48:07.318Z,6.30
2023-02-13T02:50:46.353Z,5.75
2023-02-13T02:53:26.859Z,6.53
2023-02-13T02:56:29.931Z,6.03
2023-02-13T02:59:22.587Z,6.90
2023-02-13T03:02:10.261Z,5.82
2023-02-13T03:05:09.712Z,6.07
2023-02-13T03:07:36.647Z,5.82
2023-02-13T03:10:25.968Z,5.93
2023-02-13T03:28:46.194Z,6.72
2023-02-13T03:31:50.411Z,6.45
2023-02-13T03:34:23.731Z,5.88
2023-02-13T03:37:19.778Z,6.18
2023-02-13T03:39:46.588Z,7.22
2023-02-13T03:42:29.087Z,7.15
2023-02-13T03:45:31.836Z,6.85
2023-02-13T03:48:01.552Z,7.30
2023-02-13T03:50:29.412Z,6.97
2023-02-13T03:53:03.221Z,8.02
2023-02-13T03:55:59.726Z,6.30
2023-02-13T03:58:50.572Z,7.38
2023-02-13T04:01:22.354Z,6.60
2023-02-13T04:03:57.046Z,7.13
2023-02-13T04:06:32.975Z,6.50
2023-02-13T04:08:59.906Z,7.82
2023-02-13T04:12:01.529Z,7.22
2023-02-13T04:14:38.733Z,7.47
2023-02-13T04:17:31.418Z,6.85
2023-02-13T04:19:58.361Z,7.85
2023-02-13T04:22:25.248Z,6.63
2023-02-13T04:24:52.139Z,8.30
2023-02-13T04:29:45.972Z,10.18
2023-02-13T04:32:14.262Z,6.90
2023-02-13T04:34:41.080Z,8.23
2023-02-13T04:37:08.066Z,8.35
2023-02-13T04:39:35.446Z,7.25
2023-02-13T04:42:02.323Z,8.30
2023-02-13T04:44:29.205Z,7.68
2023-02-13T04:46:56.050Z,8.10
2023-02-13T04:49:22.958Z,7.68
2023-02-13T04:51:49.765Z,7.57
2023-02-13T04:54:16.566Z,7.13
2023-02-13T04:56:43.466Z,8.68
2023-02-13T04:59:10.289Z,7.25
2023-02-13T05:01:37.218Z,6.97
2023-02-13T05:04:04.308Z,7.20
2023-02-13T05:06:31.191Z,8.65
2023-02-13T05:08:58.047Z,10.32
2023-02-13T05:11:24.933Z,10.57
2023-02-13T05:13:51.742Z,9.52
2023-02-13T05:16:18.652Z,12.05
2023-02-13T05:18:45.482Z,9.13
2023-02-13T05:21:38.455Z,8.50
2023-02-13T05:24:05.647Z,8.30
2023-02-13T05:26:32.736Z,8.10
2023-02-13T05:29:18.265Z,11.60
2023-02-13T05:31:49.991Z,11.63
2023-02-13T05:34:17.099Z,13.82
2023-02-13T05:36:43.999Z,9.30
2023-02-13T05:39:10.916Z,12.23
2023-02-13T05:41:37.773Z,9.85
2023-02-13T05:44:05.067Z,12.88
2023-02-13T05:46:31.937Z,10.27
2023-02-13T05:48:59.042Z,12.52
2023-02-13T05:51:25.973Z,10.77
2023-02-13T05:53:52.897Z,12.00
2023-02-13T05:56:19.805Z,16.27
2023-02-13T05:58:46.676Z,21.98
2023-02-13T06:01:13.868Z,18.05
2023-02-13T06:03:40.709Z,23.55
2023-02-13T06:06:07.814Z,25.13
2023-02-13T06:08:34.807Z,21.52
2023-02-13T06:11:02.199Z,23.00
2023-02-13T06:13:29.390Z,26.48
2023-02-13T06:15:56.787Z,21.52
2023-02-13T06:18:23.774Z,26.15
2023-02-13T06:20:50.694Z,26.33
2023-02-13T06:23:17.913Z,24.67
2023-02-13T06:25:44.745Z,24.38
2023-02-13T06:28:11.617Z,24.23
2023-02-13T06:30:38.504Z,23.95
2023-02-13T06:33:05.409Z,29.75
2023-02-13T06:35:32.265Z,27.35
2023-02-13T06:37:59.119Z,24.75
2023-02-13T06:40:26.096Z,24.52
2023-02-13T06:42:53.081Z,34.85
2023-02-13T06:45:19.970Z,26.10
2023-02-13T06:47:48.582Z,19.85
2023-02-13T06:50:16.837Z,22.08
2023-02-13T06:52:51.399Z,19.33
2023-02-13T06:55:19.094Z,18.50
2023-02-13T06:57:46.892Z,17.13
2023-02-13T07:00:16.115Z,19.10
2023-02-13T07:02:44.338Z,23.40
2023-02-13T07:05:11.906Z,26.35
2023-02-13T07:07:40.719Z,26.58
2023-02-13T07:10:10.648Z,29.33
2023-02-13T07:12:37.735Z,25.67
2023-02-13T07:15:05.851Z,24.20
2023-02-13T07:17:34.042Z,25.30
2023-02-13T07:20:00.977Z,25.48
2023-02-13T07:22:27.920Z,26.67
2023-02-13T07:24:54.870Z,24.30
2023-02-13T07:27:21.738Z,25.17
2023-02-13T07:29:48.649Z,26.33
2023-02-13T07:32:15.598Z,23.02
2023-02-13T07:34:55.816Z,21.02
2023-02-13T07:37:29.331Z,23.23
2023-02-13T07:39:56.159Z,23.33
2023-02-13T07:42:23.169Z,31.52
2023-02-13T07:44:50.174Z,25.65
2023-02-13T07:47:19.027Z,25.83
2023-02-13T07:49:47.114Z,20.45
2023-02-13T07:52:14.053Z,19.30
2023-02-13T07:54:47.712Z,25.33
2023-02-13T07:57:15.513Z,19.77
2023-02-13T07:59:42.346Z,21.33
2023-02-13T08:02:18.258Z,17.88
2023-02-13T08:04:47.848Z,20.50
2023-02-13T08:07:16.693Z,18.60
2023-02-13T08:10:05.823Z,17.10
2023-02-13T08:12:35.821Z,20.15
2023-02-13T08:15:03.213Z,17.80
2023-02-13T08:17:30.072Z,21.02
2023-02-13T08:19:57.039Z,18.67
2023-02-13T08:22:24.091Z,19.10
2023-02-13T08:24:50.922Z,20.48
2023-02-13T08:27:17.792Z,17.95
2023-02-13T08:29:44.687Z,22.45
2023-02-13T08:32:11.643Z,18.50
2023-02-13T08:34:38.611Z,28.30
2023-02-13T08:37:05.406Z,25.23
2023-02-13T08:39:32.338Z,23.38
2023-02-13T08:41:59.238Z,18.75
2023-02-13T08:44:26.177Z,20.42
2023-02-13T08:46:53.160Z,19.20
2023-02-13T08:49:20.293Z,21.80
2023-02-13T08:51:47.157Z,18.58
2023-02-13T08:54:13.974Z,18.33
2023-02-13T08:56:41.721Z,24.60
2023-02-13T08:59:08.798Z,18.10
2023-02-13T09:01:35.726Z,20.13
2023-02-13T09:04:02.623Z,16.02
2023-02-13T09:06:29.668Z,16.88
2023-02-13T09:08:56.692Z,15.40
2023-02-13T09:11:23.660Z,16.70
2023-02-13T09:13:54.645Z,15.48
2023-02-13T09:16:22.249Z,15.70
2023-02-13T09:18:52.659Z,16.30
2023-02-13T09:21:22.797Z,15.52
2023-02-13T09:23:51.103Z,15.57
2023-02-13T09:26:20.796Z,16.42
2023-02-13T09:28:48.109Z,15.93
2023-02-13T09:31:17.968Z,15.52
2023-02-13T09:33:47.082Z,18.40
2023-02-13T09:36:20.203Z,16.48
2023-02-13T09:38:57.865Z,19.33
2023-02-13T09:41:43.177Z,23.15
2023-02-13T09:44:39.202Z,17.13
2023-02-13T09:47:24.338Z,15.43
2023-02-13T09:49:57.231Z,14.95
2023-02-13T09:52:26.534Z,15.57
2023-02-13T09:54:53.448Z,17.73
2023-02-13T09:57:42.606Z,16.52
2023-02-13T10:00:20.192Z,17.33
2023-02-13T10:02:59.383Z,16.52
2023-02-13T10:05:57.468Z,16.88
2023-02-13T10:08:38.810Z,16.50
2023-02-13T10:11:26.125Z,16.95
2023-02-13T10:14:09.547Z,16.75
2023-02-13T10:17:05.542Z,17.17
2023-02-13T10:19:55.455Z,15.48
2023-02-13T10:22:32.019Z,15.63
2023-02-13T10:25:08.495Z,19.23
2023-02-13T10:27:40.181Z,21.65
2023-02-13T10:30:29.245Z,20.48
2023-02-13T10:33:20.328Z,18.10
2023-02-13T10:36:10.243Z,16.65
2023-02-13T10:38:44.745Z,17.63
2023-02-13T10:41:30.303Z,16.50
2023-02-13T10:44:10.994Z,18.48
2023-02-13T10:46:40.887Z,17.92
2023-02-13T10:49:26.509Z,18.33
2023-02-13T10:52:23.228Z,18.35
2023-02-13T10:54:55.966Z,18.77
2023-02-13T10:57:36.556Z,18.23
2023-02-13T11:00:16.280Z,18.45
2023-02-13T11:02:43.181Z,20.25
2023-02-13T11:05:21.506Z,17.35
2023-02-13T11:07:49.804Z,19.40
2023-02-13T11:10:22.720Z,18.52
2023-02-13T11:12:50.341Z,18.23
2023-02-13T11:15:56.640Z,18.70
2023-02-13T11:18:27.080Z,17.13
2023-02-13T11:21:10.811Z,18.85
2023-02-13T11:23:42.768Z,18.77
2023-02-13T11:26:14.810Z,19.20
2023-02-13T11:28:58.180Z,18.60
2023-02-13T11:31:27.049Z,17.85
2023-02-13T11:33:54.379Z,17.52
2023-02-13T11:36:33.771Z,18.27
2023-02-13T11:39:07.415Z,17.67
2023-02-13T11:41:42.673Z,19.33
2023-02-13T11:44:31.658Z,19.70
2023-02-13T11:47:01.351Z,18.48
2023-02-13T11:49:30.503Z,14.77
2023-02-13T11:52:00.783Z,15.93
2023-02-13T11:54:30.966Z,15.73
2023-02-13T11:57:06.323Z,15.82
2023-02-13T11:59:40.875Z,13.48
2023-02-13T12:02:20.218Z,14.63
2023-02-13T12:05:08.359Z,13.50
2023-02-13T12:07:35.198Z,13.18
2023-02-13T12:10:25.342Z,13.93
2023-02-13T12:13:25.535Z,15.30
2023-02-13T12:16:01.016Z,13.82
2023-02-13T12:18:37.466Z,14.35
2023-02-13T12:21:43.136Z,15.15
2023-02-13T12:24:13.126Z,13.98
2023-02-13T12:27:14.748Z,13.40
2023-02-13T12:30:05.901Z,15.20
2023-02-13T12:32:57.024Z,14.02
2023-02-13T12:35:47.029Z,14.27
2023-02-13T12:38:26.003Z,15.02
2023-02-13T12:41:20.197Z,14.00
2023-02-13T12:44:04.535Z,13.98
2023-02-13T12:46:56.826Z,13.45
2023-02-13T12:49:26.453Z,12.82
2023-02-13T12:52:02.412Z,15.15
2023-02-13T12:54:37.499Z,14.02
2023-02-13T12:57:42.241Z,12.88
2023-02-13T13:00:26.821Z,12.97
2023-02-13T13:03:22.675Z,16.08
2023-02-13T13:06:28.039Z,14.25
2023-02-13T13:09:25.881Z,12.55
2023-02-13T13:12:13.971Z,15.63
2023-02-13T13:14:57.115Z,11.80
2023-02-13T13:17:42.806Z,13.30
2023-02-13T13:20:49.160Z,13.55
2023-02-13T13:23:20.627Z,11.77
2023-02-13T13:25:47.482Z,11.88
2023-02-13T13:28:24.923Z,12.43
2023-02-13T13:30:53.812Z,13.65
2023-02-13T13:33:26.266Z,12.27
2023-02-13T13:36:05.809Z,12.68
2023-02-13T13:38:38.517Z,14.48
2023-02-13T13:41:18.167Z,11.80
2023-02-13T13:44:18.636Z,11.75
2023-02-13T13:46:53.313Z,11.65
2023-02-13T13:49:38.141Z,10.90
2023-02-13T13:54:53.749Z,11.07
2023-02-13T13:57:40.874Z,10.80
2023-02-13T14:00:13.573Z,9.90
2023-02-13T14:02:48.518Z,10.73
2023-02-13T14:05:33.451Z,12.45
2023-02-13T14:10:49.968Z,10.57
2023-02-13T14:13:36.135Z,10.45
2023-02-13T14:16:04.947Z,10.02
2023-02-13T14:18:32.535Z,10.45
2023-02-13T14:21:01.917Z,10.98
2023-02-13T14:23:50.767Z,11.88
2023-02-13T14:26:17.632Z,10.13
2023-02-13T14:28:58.693Z,10.50
2023-02-13T14:31:40.696Z,14.20
2023-02-13T14:34:17.145Z,13.60
2023-02-13T14:36:49.064Z,14.55
2023-02-13T14:39:36.440Z,13.98
2023-02-13T14:42:21.773Z,13.07
2023-02-13T14:44:57.206Z,14.02
2023-02-13T14:47:30.500Z,14.80
2023-02-13T14:49:59.527Z,14.30
2023-02-13T14:52:33.145Z,13.48
2023-02-13T14:55:04.460Z,15.07
2023-02-13T14:57:37.979Z,14.05
2023-02-13T15:00:17.491Z,13.77
2023-02-13T15:02:53.294Z,14.35
2023-02-13T15:05:21.886Z,15.85
2023-02-13T15:08:17.207Z,15.20
2023-02-13T15:10:53.453Z,15.13
2023-02-13T15:13:35.236Z,16.48
2023-02-13T15:16:02.515Z,15.25
2023-02-13T15:30:01.721Z,16.55
2023-02-13T15:32:34.915Z,19.38
2023-02-13T15:35:01.915Z,17.38
2023-02-13T15:37:30.824Z,14.32
2023-02-13T15:40:17.780Z,17.02
2023-02-13T15:42:45.001Z,16.55
2023-02-13T15:45:18.008Z,17.38
2023-02-13T15:47:46.885Z,19.88
2023-02-13T15:50:31.054Z,17.35
2023-02-13T15:53:00.044Z,16.63
2023-02-13T15:55:29.171Z,17.67
2023-02-13T15:57:59.141Z,18.27
2023-02-13T16:00:30.808Z,17.80
2023-02-13T16:02:59.342Z,19.10
2023-02-13T16:05:39.367Z,19.33
2023-02-13T16:08:40.709Z,21.60
2023-02-13T16:11:24.108Z,20.98
2023-02-13T16:14:20.993Z,26.67
2023-02-13T16:17:05.991Z,19.38
2023-02-13T16:19:37.174Z,21.00
2023-02-13T16:22:27.307Z,21.98
2023-02-13T16:25:04.168Z,20.85
2023-02-13T16:27:31.359Z,26.48
2023-02-13T16:30:01.038Z,30.58
2023-02-13T16:32:41.719Z,25.40
2023-02-13T16:35:30.789Z,34.40
2023-02-13T16:38:02.348Z,35.15
2023-02-13T16:40:42.820Z,38.75
2023-02-13T16:43:34.235Z,39.92
2023-02-13T16:46:19.381Z,33.05
2023-02-13T16:49:01.341Z,30.00
2023-02-13T16:51:42.752Z,33.45
2023-02-13T16:54:16.001Z,36.78
2023-02-13T16:56:54.048Z,44.65
2023-02-13T16:59:43.886Z,43.90
2023-02-13T17:02:25.202Z,40.55
2023-02-13T17:05:20.793Z,41.92
2023-02-13T17:07:53.308Z,38.83
2023-02-13T17:10:35.402Z,42.65
2023-02-13T17:13:19.439Z,33.65
2023-02-13T17:15:48.026Z,38.10
2023-02-13T17:18:14.972Z,44.63
2023-02-13T17:20:44.156Z,45.75
2023-02-13T17:23:22.388Z,41.38
2023-02-13T17:25:52.006Z,43.15
2023-02-13T17:28:21.228Z,39.72
2023-02-13T17:30:51.176Z,36.00
2023-02-13T17:33:22.229Z,39.08
2023-02-13T17:35:49.683Z,62.30
2023-02-13T17:38:16.849Z,36.00
2023-02-13T17:40:44.852Z,32.67
2023-02-13T17:43:13.825Z,23.48
2023-02-13T17:45:40.903Z,28.77
2023-02-13T17:48:08.174Z,22.33
2023-02-13T17:50:35.625Z,21.15
2023-02-13T17:53:05.867Z,28.90
2023-02-13T17:55:34.514Z,35.95
2023-02-13T17:58:02.234Z,34.83
2023-02-13T18:00:32.018Z,46.38
2023-02-13T18:03:00.710Z,38.55
2023-02-13T18:05:28.338Z,49.72
2023-02-13T18:07:55.758Z,53.65
2023-02-13T18:10:26.057Z,53.22
2023-02-13T18:12:54.519Z,55.55
2023-02-13T18:15:21.446Z,39.80
2023-02-13T18:17:48.371Z,41.95
2023-02-13T18:20:18.263Z,36.58
2023-02-13T18:22:45.413Z,33.60
2023-02-13T18:25:13.436Z,34.60
2023-02-13T18:27:40.522Z,36.22
2023-02-13T18:30:08.671Z,33.30
2023-02-13T18:32:35.812Z,36.33
2023-02-13T18:35:02.841Z,37.30
2023-02-13T18:37:30.210Z,44.65
2023-02-13T18:39:57.093Z,47.22
2023-02-13T18:42:24.003Z,51.60
2023-02-13T18:44:51.017Z,51.00
2023-02-13T18:47:18.206Z,55.72
2023-02-13T18:49:47.919Z,59.70
2023-02-13T18:52:15.352Z,58.97
2023-02-13T18:54:42.152Z,61.75
2023-02-13T18:57:09.395Z,56.63
2023-02-13T18:59:36.241Z,56.42
2023-02-13T19:02:04.381Z,58.10
2023-02-13T19:04:31.730Z,57.75
2023-02-13T19:06:58.663Z,64.25
2023-02-13T19:09:25.456Z,58.83
2023-02-13T19:11:52.537Z,69.50
2023-02-13T19:14:19.847Z,56.67
2023-02-13T19:16:46.939Z,52.72
2023-02-13T19:19:16.980Z,61.45
2023-02-13T19:21:44.032Z,61.03
2023-02-13T19:24:15.465Z,54.97
2023-02-13T19:26:42.675Z,60.75
2023-02-13T19:29:09.605Z,61.78
2023-02-13T19:31:36.632Z,66.50
2023-02-13T19:34:05.885Z,71.07
2023-02-13T19:36:33.183Z,69.20
2023-02-13T19:39:05.393Z,68.07
2023-02-13T19:41:33.162Z,64.10
2023-02-13T19:44:01.192Z,69.70
2023-02-13T19:46:30.473Z,82.35
2023-02-13T19:48:58.059Z,77.97
2023-02-13T19:51:27.864Z,68.68
2023-02-13T19:54:01.227Z,75.78
2023-02-13T19:56:29.646Z,71.50
2023-02-13T19:58:56.953Z,68.35
2023-02-13T20:01:25.695Z,70.68
2023-02-13T20:03:53.739Z,68.75
2023-02-13T20:06:27.947Z,65.15
2023-02-13T20:08:58.298Z,61.75
2023-02-13T20:11:25.585Z,61.60
2023-02-13T20:13:57.596Z,98.45
2023-02-13T20:16:24.528Z,76.40
2023-02-13T20:18:51.554Z,67.00
2023-02-13T20:21:19.461Z,62.72
2023-02-13T20:23:51.809Z,60.92
2023-02-13T20:26:19.537Z,73.78
2023-02-13T20:28:48.100Z,64.18
2023-02-13T20:31:20.961Z,72.05
2023-02-13T20:33:49.719Z,63.83
2023-02-13T20:36:22.328Z,64.68
2023-02-13T20:38:50.700Z,69.80
2023-02-13T20:41:19.825Z,62.60
2023-02-13T20:43:47.217Z,67.90
2023-02-13T20:46:18.083Z,62.10
2023-02-13T20:48:47.447Z,59.88
2023-02-13T20:51:16.931Z,62.63
2023-02-13T20:53:45.153Z,56.33
2023-02-13T20:56:12.053Z,54.40
2023-02-13T20:58:41.337Z,58.47
2023-02-13T21:01:30.030Z,64.00
2023-02-13T21:03:57.497Z,64.40
2023-02-13T21:06:35.991Z,57.47
2023-02-13T21:09:05.591Z,55.53
2023-02-13T21:11:34.473Z,62.72
2023-02-13T21:14:02.428Z,53.15
2023-02-13T21:16:35.467Z,51.78
2023-02-13T21:19:06.436Z,51.90
2023-02-13T21:21:34.591Z,45.92
2023-02-13T21:24:08.091Z,46.15
2023-02-13T21:26:36.077Z,46.58
2023-02-13T21:29:04.138Z,52.13
2023-02-13T21:31:37.162Z,53.95
2023-02-13T21:34:06.586Z,51.97
2023-02-13T21:36:35.431Z,56.95
2023-02-13T21:39:03.589Z,52.00
2023-02-13T21:41:30.512Z,57.22
2023-02-13T21:43:57.507Z,52.28
2023-02-13T21:46:30.196Z,58.25
2023-02-13T21:48:59.801Z,50.53
2023-02-13T21:51:28.517Z,56.58
2023-02-13T21:53:56.071Z,52.05
2023-02-13T21:56:25.732Z,57.55
2023-02-13T21:58:53.267Z,51.80
2023-02-13T22:01:26.416Z,58.20
2023-02-13T22:03:57.297Z,50.67
2023-02-13T22:06:25.624Z,51.05
2023-02-13T22:09:01.320Z,52.50
2023-02-13T22:11:28.960Z,48.03
2023-02-13T22:13:57.751Z,43.75
2023-02-13T22:16:25.081Z,53.65
2023-02-13T22:18:52.055Z,52.25
2023-02-13T22:21:21.700Z,56.80
2023-02-13T22:23:51.353Z,55.90
2023-02-13T22:26:38.964Z,52.85
2023-02-13T22:29:09.475Z,51.78
2023-02-13T22:31:36.643Z,56.58
2023-02-13T22:34:05.549Z,55.97
2023-02-13T22:36:40.334Z,56.40
2023-02-13T22:41:36.754Z,54.28
2023-02-13T22:44:04.115Z,61.22
2023-02-13T22:46:33.107Z,54.95
2023-02-13T22:49:00.296Z,59.75
2023-02-13T22:51:32.812Z,61.25
2023-02-13T22:54:00.221Z,63.05
2023-02-13T22:56:29.187Z,56.88
2023-02-13T22:58:56.964Z,61.78
2023-02-13T23:01:26.216Z,57.95
2023-02-13T23:03:53.509Z,57.45
2023-02-13T23:06:21.939Z,61.55
2023-02-13T23:08:52.580Z,64.18
2023-02-13T23:11:40.220Z,60.85
2023-02-13T23:14:07.397Z,65.78
2023-02-13T23:16:54.362Z,66.57
2023-02-13T23:19:21.947Z,62.13
2023-02-13T23:21:49.265Z,63.80
2023-02-13T23:24:16.482Z,68.45
2023-02-13T23:26:43.554Z,68.93
2023-02-13T23:29:10.510Z,71.68
2023-02-13T23:31:37.931Z,63.30
2023-02-13T23:34:04.785Z,74.60
2023-02-13T23:36:31.630Z,67.88
2023-02-13T23:38:58.542Z,67.15
2023-02-13T23:41:25.359Z,66.10
2023-02-13T23:43:52.284Z,68.28
2023-02-13T23:46:19.197Z,66.72
2023-02-13T23:48:46.484Z,64.55
2023-02-13T23:51:13.578Z,63.08
2023-02-13T23:53:40.555Z,64.78
2023-02-13T23:56:07.978Z,65.65
2023-02-13T23:58:35.088Z,60.47
